Milam Dairy, Florida
Current Conditions -  °F | °C
As of 12:53 PM on Thursday 30 Oct 2014 (Local Time) from KMIA Reporting Station
Broken Clouds Broken Clouds  
Wind Chill: 86°   Ceiling: 4800
Heat Index: 86°   Visibility: 10mi
Dew Point: 62°   Wind: 3mph
Humidity: 44%   Direction: NA
Pressure: 29.94"   Gusts: NA
Location:  25.8267°N, 80.3148°W
Report Text: KMIA 301653Z VRB03KT 10SM BKN048 BKN060 BKN180 30/17 A2994 RMK AO2 SLP139 TCU DSNT E T03000167
Loading
Personal Weather Stations






























Interactive Weather Map
Tropical Storm Tracking
New forecast layout! Learn more

10-Day Weather Forecast

Advertisements
Track Severe Weather on mobile